sensor_id;sensor_type;location;lat;lon;timestamp;pressure;altitude;pressure_sealevel;temperature;humidity
22020;BME280;51298;53.362;-1.518;2024-03-08T00:01:49;99553.44;;;3.26;81.68
22020;BME280;51298;53.362;-1.518;2024-03-08T00:04:22;99550.78;;;3.27;81.03
22020;BME280;51298;53.362;-1.518;2024-03-08T00:07:12;99550.16;;;3.24;81.98
22020;BME280;51298;53.362;-1.518;2024-03-08T00:09:45;99551.69;;;3.26;81.63
22020;BME280;51298;53.362;-1.518;2024-03-08T00:12:35;99546.53;;;3.26;82.25
22020;BME280;51298;53.362;-1.518;2024-03-08T00:15:09;99544.06;;;3.25;82.09
22020;BME280;51298;53.362;-1.518;2024-03-08T00:17:55;99546.53;;;3.26;82.38
22020;BME280;51298;53.362;-1.518;2024-03-08T00:20:27;99541.28;;;3.28;82.84
22020;BME280;51298;53.362;-1.518;2024-03-08T00:23:14;99533.84;;;3.23;82.77
22020;BME280;51298;53.362;-1.518;2024-03-08T00:25:49;99527.13;;;3.21;82.65
22020;BME280;51298;53.362;-1.518;2024-03-08T00:28:39;99520.63;;;3.28;82.96
22020;BME280;51298;53.362;-1.518;2024-03-08T00:31:13;99519.50;;;3.19;84.24
22020;BME280;51298;53.362;-1.518;2024-03-08T00:33:59;99518.66;;;3.18;83.43
22020;BME280;51298;53.362;-1.518;2024-03-08T00:36:32;99516.69;;;3.22;84.17
22020;BME280;51298;53.362;-1.518;2024-03-08T00:39:19;99508.94;;;3.22;84.10
22020;BME280;51298;53.362;-1.518;2024-03-08T00:41:56;99516.06;;;3.18;84.54
22020;BME280;51298;53.362;-1.518;2024-03-08T00:44:43;99518.44;;;3.22;84.65
22020;BME280;51298;53.362;-1.518;2024-03-08T00:47:16;99507.44;;;3.20;84.93
22020;BME280;51298;53.362;-1.518;2024-03-08T00:50:03;99502.56;;;3.15;84.85
22020;BME280;51298;53.362;-1.518;2024-03-08T00:52:37;99504.44;;;3.13;85.28
22020;BME280;51298;53.362;-1.518;2024-03-08T00:55:24;99496.56;;;3.14;85.34
22020;BME280;51298;53.362;-1.518;2024-03-08T00:57:56;99497.72;;;3.23;85.06
22020;BME280;51298;53.362;-1.518;2024-03-08T01:00:43;99496.38;;;3.17;85.80
22020;BME280;51298;53.362;-1.518;2024-03-08T01:03:16;99490.25;;;3.18;85.82
22020;BME280;51298;53.362;-1.518;2024-03-08T01:06:04;99472.81;;;3.22;85.91
22020;BME280;51298;53.362;-1.518;2024-03-08T01:08:36;99482.31;;;3.22;86.21
22020;BME280;51298;53.362;-1.518;2024-03-08T01:11:23;99475.31;;;3.24;85.96
22020;BME280;51298;53.362;-1.518;2024-03-08T01:13:55;99468.72;;;3.20;86.84
22020;BME280;51298;53.362;-1.518;2024-03-08T01:16:42;99464.53;;;3.30;87.30
22020;BME280;51298;53.362;-1.518;2024-03-08T01:19:14;99453.72;;;3.25;86.99
22020;BME280;51298;53.362;-1.518;2024-03-08T01:22:01;99463.50;;;3.32;87.36
22020;BME280;51298;53.362;-1.518;2024-03-08T01:24:35;99448.94;;;3.31;87.59
22020;BME280;51298;53.362;-1.518;2024-03-08T01:27:22;99442.72;;;3.34;88.27
22020;BME280;51298;53.362;-1.518;2024-03-08T01:29:58;99436.13;;;3.30;88.40
22020;BME280;51298;53.362;-1.518;2024-03-08T01:32:44;99445.31;;;3.34;88.34
22020;BME280;51298;53.362;-1.518;2024-03-08T01:35:17;99427.22;;;3.34;88.49
22020;BME280;51298;53.362;-1.518;2024-03-08T01:38:04;99432.72;;;3.29;89.03
22020;BME280;51298;53.362;-1.518;2024-03-08T01:40:40;99435.31;;;3.29;89.24
22020;BME280;51298;53.362;-1.518;2024-03-08T01:43:31;99427.22;;;3.34;89.40
22020;BME280;51298;53.362;-1.518;2024-03-08T01:46:06;99427.03;;;3.37;89.36
22020;BME280;51298;53.362;-1.518;2024-03-08T01:48:55;99419.28;;;3.37;89.82
22020;BME280;51298;53.362;-1.518;2024-03-08T01:51:29;99420.22;;;3.36;90.21
22020;BME280;51298;53.362;-1.518;2024-03-08T01:54:17;99412.13;;;3.40;90.39
22020;BME280;51298;53.362;-1.518;2024-03-08T01:56:52;99413.69;;;3.43;90.35
22020;BME280;51298;53.362;-1.518;2024-03-08T01:59:42;99410.59;;;3.38;90.94
22020;BME280;51298;53.362;-1.518;2024-03-08T02:02:17;99403.56;;;3.40;90.53
22020;BME280;51298;53.362;-1.518;2024-03-08T02:05:06;99400.38;;;3.36;91.30
22020;BME280;51298;53.362;-1.518;2024-03-08T02:07:43;99393.94;;;3.42;91.09
22020;BME280;51298;53.362;-1.518;2024-03-08T02:10:29;99401.59;;;3.43;91.04
22020;BME280;51298;53.362;-1.518;2024-03-08T02:13:06;99389.75;;;3.52;91.23
22020;BME280;51298;53.362;-1.518;2024-03-08T02:15:56;99393.97;;;3.53;90.95
22020;BME280;51298;53.362;-1.518;2024-03-08T02:18:34;99389.28;;;3.47;91.46
22020;BME280;51298;53.362;-1.518;2024-03-08T02:21:21;99385.75;;;3.48;91.09
22020;BME280;51298;53.362;-1.518;2024-03-08T02:23:54;99378.72;;;3.50;90.91
22020;BME280;51298;53.362;-1.518;2024-03-08T02:26:40;99364.28;;;3.48;91.35
22020;BME280;51298;53.362;-1.518;2024-03-08T02:29:15;99373.78;;;3.47;91.81
22020;BME280;51298;53.362;-1.518;2024-03-08T02:32:01;99364.50;;;3.45;91.35
22020;BME280;51298;53.362;-1.518;2024-03-08T02:34:37;99362.38;;;3.50;91.38
22020;BME280;51298;53.362;-1.518;2024-03-08T02:37:24;99360.53;;;3.52;92.26
22020;BME280;51298;53.362;-1.518;2024-03-08T02:39:57;99353.16;;;3.58;91.56
22020;BME280;51298;53.362;-1.518;2024-03-08T02:42:44;99354.19;;;3.56;91.29
22020;BME280;51298;53.362;-1.518;2024-03-08T02:45:17;99350.94;;;3.54;92.14
22020;BME280;51298;53.362;-1.518;2024-03-08T02:48:03;99343.50;;;3.49;91.77
22020;BME280;51298;53.362;-1.518;2024-03-08T02:50:37;99340.59;;;3.54;92.05
22020;BME280;51298;53.362;-1.518;2024-03-08T02:53:23;99337.88;;;3.55;91.85
22020;BME280;51298;53.362;-1.518;2024-03-08T02:55:57;99332.72;;;3.55;91.36
22020;BME280;51298;53.362;-1.518;2024-03-08T02:58:49;99330.97;;;3.56;92.13
22020;BME280;51298;53.362;-1.518;2024-03-08T03:01:23;99325.34;;;3.62;91.22
22020;BME280;51298;53.362;-1.518;2024-03-08T03:04:10;99320.41;;;3.59;91.88
22020;BME280;51298;53.362;-1.518;2024-03-08T03:06:43;99316.63;;;3.52;91.78
22020;BME280;51298;53.362;-1.518;2024-03-08T03:09:29;99308.09;;;3.62;91.92
22020;BME280;51298;53.362;-1.518;2024-03-08T03:12:03;99314.22;;;3.61;91.97
22020;BME280;51298;53.362;-1.518;2024-03-08T03:14:50;99311.72;;;3.60;92.07
22020;BME280;51298;53.362;-1.518;2024-03-08T03:17:23;99307.75;;;3.67;91.84
22020;BME280;51298;53.362;-1.518;2024-03-08T03:20:11;99299.63;;;3.60;91.32
22020;BME280;51298;53.362;-1.518;2024-03-08T03:22:55;99291.78;;;3.62;91.81
22020;BME280;51298;53.362;-1.518;2024-03-08T03:25:43;99295.28;;;3.61;91.05
22020;BME280;51298;53.362;-1.518;2024-03-08T03:28:19;99290.84;;;3.63;91.98
22020;BME280;51298;53.362;-1.518;2024-03-08T03:31:09;99283.09;;;3.63;91.24
22020;BME280;51298;53.362;-1.518;2024-03-08T03:33:50;99280.16;;;3.67;91.57
22020;BME280;51298;53.362;-1.518;2024-03-08T03:37:12;99286.50;;;3.63;91.16
22020;BME280;51298;53.362;-1.518;2024-03-08T03:39:46;99280.06;;;3.69;91.79
22020;BME280;51298;53.362;-1.518;2024-03-08T03:42:32;99278.38;;;3.68;91.50
22020;BME280;51298;53.362;-1.518;2024-03-08T03:45:07;99277.22;;;3.72;90.72
22020;BME280;51298;53.362;-1.518;2024-03-08T03:47:54;99272.75;;;3.63;91.51
22020;BME280;51298;53.362;-1.518;2024-03-08T03:50:26;99269.72;;;3.69;91.12
22020;BME280;51298;53.362;-1.518;2024-03-08T03:53:16;99276.03;;;3.65;91.41
22020;BME280;51298;53.362;-1.518;2024-03-08T03:55:49;99265.81;;;3.63;91.45
22020;BME280;51298;53.362;-1.518;2024-03-08T03:58:37;99267.00;;;3.71;91.01
22020;BME280;51298;53.362;-1.518;2024-03-08T04:01:10;99265.38;;;3.70;91.02
22020;BME280;51298;53.362;-1.518;2024-03-08T04:03:57;99256.31;;;3.75;91.70
22020;BME280;51298;53.362;-1.518;2024-03-08T04:06:29;99256.44;;;3.74;91.47
22020;BME280;51298;53.362;-1.518;2024-03-08T04:09:16;99255.50;;;3.75;91.13
22020;BME280;51298;53.362;-1.518;2024-03-08T04:11:51;99250.69;;;3.70;91.04
22020;BME280;51298;53.362;-1.518;2024-03-08T04:14:43;99252.19;;;3.73;91.31
22020;BME280;51298;53.362;-1.518;2024-03-08T04:17:16;99242.72;;;3.73;90.91
22020;BME280;51298;53.362;-1.518;2024-03-08T04:20:04;99239.63;;;3.68;91.09
22020;BME280;51298;53.362;-1.518;2024-03-08T04:22:41;99247.28;;;3.70;91.44
22020;BME280;51298;53.362;-1.518;2024-03-08T04:25:29;99237.28;;;3.65;91.66
22020;BME280;51298;53.362;-1.518;2024-03-08T04:28:05;99238.00;;;3.67;91.66
22020;BME280;51298;53.362;-1.518;2024-03-08T04:31:17;99235.28;;;3.68;91.66
22020;BME280;51298;53.362;-1.518;2024-03-08T04:33:57;99226.72;;;3.68;91.16
22020;BME280;51298;53.362;-1.518;2024-03-08T04:36:30;99227.53;;;3.68;91.05
22020;BME280;51298;53.362;-1.518;2024-03-08T04:39:35;99228.13;;;3.72;91.37
22020;BME280;51298;53.362;-1.518;2024-03-08T04:42:28;99226.72;;;3.68;91.98
22020;BME280;51298;53.362;-1.518;2024-03-08T04:45:36;99224.38;;;3.65;91.62
22020;BME280;51298;53.362;-1.518;2024-03-08T04:48:30;99216.28;;;3.70;91.89
22020;BME280;51298;53.362;-1.518;2024-03-08T04:56:28;99211.59;;;3.75;91.45
22020;BME280;51298;53.362;-1.518;2024-03-08T04:59:49;99217.56;;;3.75;90.89
22020;BME280;51298;53.362;-1.518;2024-03-08T05:03:22;99215.13;;;3.74;91.22
22020;BME280;51298;53.362;-1.518;2024-03-08T05:06:50;99203.38;;;3.81;91.37
22020;BME280;51298;53.362;-1.518;2024-03-08T05:10:51;99212.41;;;3.75;91.29
22020;BME280;51298;53.362;-1.518;2024-03-08T05:14:36;99208.78;;;3.78;91.76
22020;BME280;51298;53.362;-1.518;2024-03-08T05:17:44;99200.53;;;3.73;91.64
22020;BME280;51298;53.362;-1.518;2024-03-08T05:21:11;99201.72;;;3.68;91.44
22020;BME280;51298;53.362;-1.518;2024-03-08T05:24:04;99204.19;;;3.70;91.18
22020;BME280;51298;53.362;-1.518;2024-03-08T05:27:11;99187.53;;;3.74;91.00
22020;BME280;51298;53.362;-1.518;2024-03-08T05:30:04;99197.84;;;3.74;91.44
22020;BME280;51298;53.362;-1.518;2024-03-08T05:33:14;99190.22;;;3.73;91.34
22020;BME280;51298;53.362;-1.518;2024-03-08T05:36:08;99188.56;;;3.72;91.36
22020;BME280;51298;53.362;-1.518;2024-03-08T05:39:16;99182.59;;;3.71;91.60
22020;BME280;51298;53.362;-1.518;2024-03-08T05:42:10;99180.59;;;3.75;91.25
22020;BME280;51298;53.362;-1.518;2024-03-08T05:45:17;99182.94;;;3.78;90.41
22020;BME280;51298;53.362;-1.518;2024-03-08T05:48:11;99188.47;;;3.73;90.62
22020;BME280;51298;53.362;-1.518;2024-03-08T05:51:17;99185.53;;;3.66;91.33
22020;BME280;51298;53.362;-1.518;2024-03-08T05:54:11;99181.91;;;3.69;91.01
22020;BME280;51298;53.362;-1.518;2024-03-08T05:57:19;99175.78;;;3.70;91.01
22020;BME280;51298;53.362;-1.518;2024-03-08T06:00:16;99166.50;;;3.67;90.58
22020;BME280;51298;53.362;-1.518;2024-03-08T06:03:46;99164.06;;;3.66;90.92
22020;BME280;51298;53.362;-1.518;2024-03-08T06:06:34;99163.34;;;3.64;90.76
22020;BME280;51298;53.362;-1.518;2024-03-08T06:09:09;99158.75;;;3.67;90.90
22020;BME280;51298;53.362;-1.518;2024-03-08T06:11:56;99160.66;;;3.65;91.02
22020;BME280;51298;53.362;-1.518;2024-03-08T06:14:29;99155.13;;;3.70;90.96
22020;BME280;51298;53.362;-1.518;2024-03-08T06:17:17;99155.22;;;3.68;91.15
22020;BME280;51298;53.362;-1.518;2024-03-08T06:19:50;99159.81;;;3.65;91.09
22020;BME280;51298;53.362;-1.518;2024-03-08T06:22:40;99158.75;;;3.67;90.59
22020;BME280;51298;53.362;-1.518;2024-03-08T06:25:16;99153.81;;;3.64;91.32
22020;BME280;51298;53.362;-1.518;2024-03-08T06:28:04;99156.88;;;3.70;90.47
22020;BME280;51298;53.362;-1.518;2024-03-08T06:30:36;99165.56;;;3.68;91.08
22020;BME280;51298;53.362;-1.518;2024-03-08T06:33:23;99150.06;;;3.68;90.95
22020;BME280;51298;53.362;-1.518;2024-03-08T06:35:58;99147.59;;;3.67;90.98
22020;BME280;51298;53.362;-1.518;2024-03-08T06:38:46;99152.31;;;3.62;90.64
22020;BME280;51298;53.362;-1.518;2024-03-08T06:41:19;99154.19;;;3.60;91.17
22020;BME280;51298;53.362;-1.518;2024-03-08T06:44:06;99153.00;;;3.64;90.88
22020;BME280;51298;53.362;-1.518;2024-03-08T06:46:42;99156.53;;;3.63;91.06
22020;BME280;51298;53.362;-1.518;2024-03-08T06:49:30;99145.03;;;3.56;91.18
22020;BME280;51298;53.362;-1.518;2024-03-08T06:52:05;99150.78;;;3.59;91.17
22020;BME280;51298;53.362;-1.518;2024-03-08T06:54:50;99144.66;;;3.60;90.92
22020;BME280;51298;53.362;-1.518;2024-03-08T06:57:24;99147.84;;;3.64;91.32
22020;BME280;51298;53.362;-1.518;2024-03-08T07:00:11;99140.22;;;3.62;91.12
22020;BME280;51298;53.362;-1.518;2024-03-08T07:02:52;99145.63;;;3.59;90.69
22020;BME280;51298;53.362;-1.518;2024-03-08T07:05:41;99140.31;;;3.61;91.33
22020;BME280;51298;53.362;-1.518;2024-03-08T07:08:14;99145.47;;;3.61;90.33
22020;BME280;51298;53.362;-1.518;2024-03-08T07:11:00;99138.31;;;3.64;90.70
22020;BME280;51298;53.362;-1.518;2024-03-08T07:13:33;99136.69;;;3.63;90.09
22020;BME280;51298;53.362;-1.518;2024-03-08T07:16:20;99135.16;;;3.61;90.36
22020;BME280;51298;53.362;-1.518;2024-03-08T07:18:53;99124.72;;;3.62;90.50
22020;BME280;51298;53.362;-1.518;2024-03-08T07:21:40;99123.31;;;3.58;91.01
22020;BME280;51298;53.362;-1.518;2024-03-08T07:24:14;99132.84;;;3.58;90.49
22020;BME280;51298;53.362;-1.518;2024-03-08T07:27:17;99132.94;;;3.56;90.15
22020;BME280;51298;53.362;-1.518;2024-03-08T07:29:50;99129.31;;;3.59;90.39
22020;BME280;51298;53.362;-1.518;2024-03-08T07:32:36;99118.97;;;3.59;90.20
22020;BME280;51298;53.362;-1.518;2024-03-08T07:35:09;99124.13;;;3.59;90.47
22020;BME280;51298;53.362;-1.518;2024-03-08T07:38:01;99120.97;;;3.66;89.85
22020;BME280;51298;53.362;-1.518;2024-03-08T07:40:36;99120.00;;;3.67;90.22
22020;BME280;51298;53.362;-1.518;2024-03-08T07:43:24;99128.56;;;3.68;90.23
22020;BME280;51298;53.362;-1.518;2024-03-08T07:45:57;99114.84;;;3.67;90.19
22020;BME280;51298;53.362;-1.518;2024-03-08T07:48:44;99110.19;;;3.61;90.10
22020;BME280;51298;53.362;-1.518;2024-03-08T07:51:18;99115.78;;;3.66;89.36
22020;BME280;51298;53.362;-1.518;2024-03-08T07:54:04;99104.66;;;3.66;89.61
22020;BME280;51298;53.362;-1.518;2024-03-08T07:56:37;99104.28;;;3.71;89.73
22020;BME280;51298;53.362;-1.518;2024-03-08T07:59:25;99111.22;;;3.70;88.90
22020;BME280;51298;53.362;-1.518;2024-03-08T08:01:58;99106.03;;;3.70;89.35
22020;BME280;51298;53.362;-1.518;2024-03-08T08:04:44;99115.91;;;3.65;89.32
22020;BME280;51298;53.362;-1.518;2024-03-08T08:07:20;99101.69;;;3.71;88.47
22020;BME280;51298;53.362;-1.518;2024-03-08T08:10:07;99088.41;;;3.75;88.62
22020;BME280;51298;53.362;-1.518;2024-03-08T08:12:39;99091.38;;;3.71;88.31
22020;BME280;51298;53.362;-1.518;2024-03-08T08:15:25;99088.91;;;3.69;88.38
22020;BME280;51298;53.362;-1.518;2024-03-08T08:17:58;99088.19;;;3.67;88.65
22020;BME280;51298;53.362;-1.518;2024-03-08T08:20:44;99082.56;;;3.73;88.64
22020;BME280;51298;53.362;-1.518;2024-03-08T08:23:18;99077.88;;;3.67;88.27
22020;BME280;51298;53.362;-1.518;2024-03-08T08:26:05;99071.88;;;3.66;87.33
22020;BME280;51298;53.362;-1.518;2024-03-08T08:28:41;99074.84;;;3.62;88.43
22020;BME280;51298;53.362;-1.518;2024-03-08T08:31:27;99070.84;;;3.69;88.22
22020;BME280;51298;53.362;-1.518;2024-03-08T08:34:00;99074.34;;;3.68;87.65
22020;BME280;51298;53.362;-1.518;2024-03-08T08:36:48;99059.31;;;3.73;87.49
22020;BME280;51298;53.362;-1.518;2024-03-08T08:39:24;99063.28;;;3.77;87.65
22020;BME280;51298;53.362;-1.518;2024-03-08T08:42:12;99064.78;;;3.80;87.19
22020;BME280;51298;53.362;-1.518;2024-03-08T08:44:45;99058.38;;;3.74;87.17
22020;BME280;51298;53.362;-1.518;2024-03-08T08:47:31;99060.75;;;3.98;87.33
22020;BME280;51298;53.362;-1.518;2024-03-08T08:50:04;99053.03;;;3.87;86.38
22020;BME280;51298;53.362;-1.518;2024-03-08T08:52:50;99053.03;;;3.87;87.08
22020;BME280;51298;53.362;-1.518;2024-03-08T08:55:23;99049.78;;;3.85;86.64
22020;BME280;51298;53.362;-1.518;2024-03-08T08:58:09;99054.56;;;3.89;86.42
22020;BME280;51298;53.362;-1.518;2024-03-08T09:00:43;99049.97;;;3.93;86.21
22020;BME280;51298;53.362;-1.518;2024-03-08T09:03:30;99040.22;;;3.97;86.63
22020;BME280;51298;53.362;-1.518;2024-03-08T09:06:07;99039.41;;;3.96;85.60
22020;BME280;51298;53.362;-1.518;2024-03-08T09:08:55;99040.22;;;3.97;86.20
22020;BME280;51298;53.362;-1.518;2024-03-08T09:11:28;99036.75;;;4.07;86.12
22020;BME280;51298;53.362;-1.518;2024-03-08T09:14:14;99044.63;;;4.06;84.53
22020;BME280;51298;53.362;-1.518;2024-03-08T09:16:50;99033.00;;;4.11;84.88
22020;BME280;51298;53.362;-1.518;2024-03-08T09:19:36;99021.81;;;4.11;84.64
22020;BME280;51298;53.362;-1.518;2024-03-08T09:22:09;99020.06;;;4.11;83.57
22020;BME280;51298;53.362;-1.518;2024-03-08T09:24:57;99020.31;;;4.29;83.99
22020;BME280;51298;53.362;-1.518;2024-03-08T09:27:30;99013.94;;;4.33;83.19
22020;BME280;51298;53.362;-1.518;2024-03-08T09:30:15;99002.34;;;4.28;83.25
22020;BME280;51298;53.362;-1.518;2024-03-08T09:32:49;98999.94;;;4.36;83.66
22020;BME280;51298;53.362;-1.518;2024-03-08T09:35:34;99006.66;;;4.38;82.38
22020;BME280;51298;53.362;-1.518;2024-03-08T09:38:08;98999.47;;;4.42;81.96
22020;BME280;51298;53.362;-1.518;2024-03-08T09:40:55;98996.22;;;4.50;82.40
22020;BME280;51298;53.362;-1.518;2024-03-08T09:43:29;98992.94;;;4.48;81.84
22020;BME280;51298;53.362;-1.518;2024-03-08T09:46:19;98982.38;;;4.60;81.88
22020;BME280;51298;53.362;-1.518;2024-03-08T09:48:53;98977.34;;;4.59;81.26
22020;BME280;51298;53.362;-1.518;2024-03-08T09:51:43;98979.41;;;4.65;81.14
22020;BME280;51298;53.362;-1.518;2024-03-08T09:54:16;98985.41;;;4.65;81.14
22020;BME280;51298;53.362;-1.518;2024-03-08T09:57:04;98980.66;;;4.71;80.41
22020;BME280;51298;53.362;-1.518;2024-03-08T09:59:37;98979.19;;;4.78;79.50
22020;BME280;51298;53.362;-1.518;2024-03-08T10:02:27;98964.19;;;4.72;80.51
22020;BME280;51298;53.362;-1.518;2024-03-08T10:04:59;98981.66;;;4.79;79.11
22020;BME280;51298;53.362;-1.518;2024-03-08T10:07:45;98960.94;;;4.70;79.65
22020;BME280;51298;53.362;-1.518;2024-03-08T10:10:18;98961.03;;;4.68;80.32
22020;BME280;51298;53.362;-1.518;2024-03-08T10:13:09;98962.56;;;4.80;80.24
22020;BME280;51298;53.362;-1.518;2024-03-08T10:15:44;98957.13;;;4.74;79.61
22020;BME280;51298;53.362;-1.518;2024-03-08T10:18:32;98961.84;;;4.69;79.11
22020;BME280;51298;53.362;-1.518;2024-03-08T10:21:07;98945.78;;;4.65;78.88
22020;BME280;51298;53.362;-1.518;2024-03-08T10:23:56;98946.16;;;4.60;78.21
22020;BME280;51298;53.362;-1.518;2024-03-08T10:26:41;98937.34;;;4.63;78.81
22020;BME280;51298;53.362;-1.518;2024-03-08T10:29:16;98934.44;;;4.56;79.44
22020;BME280;51298;53.362;-1.518;2024-03-08T10:32:02;98939.13;;;4.72;78.55
22020;BME280;51298;53.362;-1.518;2024-03-08T10:34:52;98938.84;;;4.65;79.27
22020;BME280;51298;53.362;-1.518;2024-03-08T10:37:49;98930.53;;;4.62;79.17
22020;BME280;51298;53.362;-1.518;2024-03-08T10:40:38;98935.72;;;4.62;78.68
22020;BME280;51298;53.362;-1.518;2024-03-08T10:43:24;98929.31;;;4.66;78.72
22020;BME280;51298;53.362;-1.518;2024-03-08T10:46:07;98929.88;;;4.70;78.37
22020;BME280;51298;53.362;-1.518;2024-03-08T10:48:58;98934.59;;;4.55;78.16
22020;BME280;51298;53.362;-1.518;2024-03-08T10:51:36;98920.94;;;4.43;78.65
22020;BME280;51298;53.362;-1.518;2024-03-08T10:54:23;98921.34;;;4.48;78.66
22020;BME280;51298;53.362;-1.518;2024-03-08T10:56:59;98909.78;;;4.52;77.59
22020;BME280;51298;53.362;-1.518;2024-03-08T10:59:48;98911.00;;;4.48;78.83
22020;BME280;51298;53.362;-1.518;2024-03-08T11:02:25;98907.75;;;4.46;77.15
22020;BME280;51298;53.362;-1.518;2024-03-08T11:05:38;98906.66;;;4.49;76.21
22020;BME280;51298;53.362;-1.518;2024-03-08T11:08:18;98894.28;;;4.52;76.87
22020;BME280;51298;53.362;-1.518;2024-03-08T11:11:03;98899.06;;;4.57;76.44
22020;BME280;51298;53.362;-1.518;2024-03-08T11:13:39;98895.78;;;4.55;75.94
22020;BME280;51298;53.362;-1.518;2024-03-08T11:19:00;98881.72;;;4.88;75.00
22020;BME280;51298;53.362;-1.518;2024-03-08T11:22:00;98884.44;;;4.86;74.61
22020;BME280;51298;53.362;-1.518;2024-03-08T11:24:37;98883.91;;;4.93;75.02
22020;BME280;51298;53.362;-1.518;2024-03-08T11:27:31;98889.91;;;4.93;74.00
22020;BME280;51298;53.362;-1.518;2024-03-08T11:30:06;98878.84;;;4.81;74.13
22020;BME280;51298;53.362;-1.518;2024-03-08T11:33:00;98895.03;;;4.83;73.72
22020;BME280;51298;53.362;-1.518;2024-03-08T11:35:34;98893.38;;;4.73;74.58
22020;BME280;51298;53.362;-1.518;2024-03-08T11:38:22;98881.41;;;4.72;74.33
22020;BME280;51298;53.362;-1.518;2024-03-08T11:40:57;98874.03;;;4.57;75.78
22020;BME280;51298;53.362;-1.518;2024-03-08T11:43:44;98876.44;;;4.49;75.86
22020;BME280;51298;53.362;-1.518;2024-03-08T11:46:19;98873.28;;;4.46;75.31
22020;BME280;51298;53.362;-1.518;2024-03-08T11:49:09;98870.34;;;4.60;75.15
22020;BME280;51298;53.362;-1.518;2024-03-08T11:51:44;98886.28;;;4.65;74.40
22020;BME280;51298;53.362;-1.518;2024-03-08T11:54:29;98860.44;;;4.75;74.29
22020;BME280;51298;53.362;-1.518;2024-03-08T11:57:03;98858.84;;;4.93;73.69
22020;BME280;51298;53.362;-1.518;2024-03-08T11:59:54;98855.03;;;5.07;73.21
22020;BME280;51298;53.362;-1.518;2024-03-08T12:02:34;98849.59;;;5.00;73.23
22020;BME280;51298;53.362;-1.518;2024-03-08T12:05:22;98846.75;;;5.13;73.92
22020;BME280;51298;53.362;-1.518;2024-03-08T12:07:58;98837.34;;;5.12;72.86
22020;BME280;51298;53.362;-1.518;2024-03-08T12:10:45;98833.00;;;5.12;72.80
22020;BME280;51298;53.362;-1.518;2024-03-08T12:13:19;98825.88;;;5.14;71.89
22020;BME280;51298;53.362;-1.518;2024-03-08T12:16:04;98820.84;;;5.32;70.48
22020;BME280;51298;53.362;-1.518;2024-03-08T12:18:38;98813.63;;;5.36;70.63
22020;BME280;51298;53.362;-1.518;2024-03-08T12:21:26;98811.84;;;5.46;70.38
22020;BME280;51298;53.362;-1.518;2024-03-08T12:24:08;98804.22;;;5.54;69.18
22020;BME280;51298;53.362;-1.518;2024-03-08T12:26:55;98802.06;;;5.87;70.43
22020;BME280;51298;53.362;-1.518;2024-03-08T12:29:28;98806.13;;;5.99;69.71
22020;BME280;51298;53.362;-1.518;2024-03-08T12:32:15;98790.84;;;6.06;68.77
22020;BME280;51298;53.362;-1.518;2024-03-08T12:34:55;98775.44;;;6.04;68.62
22020;BME280;51298;53.362;-1.518;2024-03-08T12:37:43;98776.38;;;6.03;68.12
22020;BME280;51298;53.362;-1.518;2024-03-08T12:40:16;98776.31;;;5.85;68.53
22020;BME280;51298;53.362;-1.518;2024-03-08T12:43:03;98783.56;;;5.72;69.07
22020;BME280;51298;53.362;-1.518;2024-03-08T12:45:38;98777.66;;;5.90;69.41
22020;BME280;51298;53.362;-1.518;2024-03-08T12:48:25;98767.44;;;5.88;68.66
22020;BME280;51298;53.362;-1.518;2024-03-08T12:50:58;98766.91;;;5.75;68.53
22020;BME280;51298;53.362;-1.518;2024-03-08T12:53:46;98762.13;;;5.80;68.71
22020;BME280;51298;53.362;-1.518;2024-03-08T12:56:28;98778.09;;;5.75;67.65
22020;BME280;51298;53.362;-1.518;2024-03-08T12:59:16;98758.50;;;5.63;69.09
22020;BME280;51298;53.362;-1.518;2024-03-08T13:01:50;98747.28;;;5.72;67.53
22020;BME280;51298;53.362;-1.518;2024-03-08T13:04:38;98764.22;;;5.67;68.56
22020;BME280;51298;53.362;-1.518;2024-03-08T13:07:11;98768.97;;;5.71;68.31
22020;BME280;51298;53.362;-1.518;2024-03-08T13:09:57;98733.44;;;5.91;68.75
22020;BME280;51298;53.362;-1.518;2024-03-08T13:12:32;98729.00;;;6.39;67.88
22020;BME280;51298;53.362;-1.518;2024-03-08T13:15:19;98728.28;;;6.46;67.67
22020;BME280;51298;53.362;-1.518;2024-03-08T13:17:58;98733.56;;;6.27;68.14
22020;BME280;51298;53.362;-1.518;2024-03-08T13:20:44;98727.66;;;6.07;68.65
22020;BME280;51298;53.362;-1.518;2024-03-08T13:23:24;98731.09;;;6.07;69.44
22020;BME280;51298;53.362;-1.518;2024-03-08T13:26:11;98724.59;;;5.94;70.79
22020;BME280;51298;53.362;-1.518;2024-03-08T13:28:48;98719.94;;;5.97;70.48
22020;BME280;51298;53.362;-1.518;2024-03-08T13:31:35;98715.19;;;5.93;70.06
22020;BME280;51298;53.362;-1.518;2024-03-08T13:34:08;98715.72;;;5.96;69.60
22020;BME280;51298;53.362;-1.518;2024-03-08T13:36:54;98722.69;;;5.86;69.97
22020;BME280;51298;53.362;-1.518;2024-03-08T13:39:32;98707.84;;;5.78;69.42
22020;BME280;51298;53.362;-1.518;2024-03-08T13:42:13;98696.00;;;5.76;69.52
22020;BME280;51298;53.362;-1.518;2024-03-08T13:44:59;98701.69;;;5.79;69.90
22020;BME280;51298;53.362;-1.518;2024-03-08T13:47:32;98696.16;;;5.74;70.26
22020;BME280;51298;53.362;-1.518;2024-03-08T13:50:18;98690.91;;;5.84;71.04
22020;BME280;51298;53.362;-1.518;2024-03-08T13:52:59;98689.59;;;6.07;71.71
22020;BME280;51298;53.362;-1.518;2024-03-08T13:55:46;98684.09;;;5.93;72.52
22020;BME280;51298;53.362;-1.518;2024-03-08T13:58:20;98689.00;;;5.86;73.13
22020;BME280;51298;53.362;-1.518;2024-03-08T14:01:07;98682.81;;;5.69;72.41
22020;BME280;51298;53.362;-1.518;2024-03-08T14:03:44;98675.44;;;5.64;73.21
22020;BME280;51298;53.362;-1.518;2024-03-08T14:06:29;98677.84;;;5.76;73.53
22020;BME280;51298;53.362;-1.518;2024-03-08T14:09:02;98674.78;;;5.62;73.22
22020;BME280;51298;53.362;-1.518;2024-03-08T14:11:57;98656.47;;;5.74;73.38
22020;BME280;51298;53.362;-1.518;2024-03-08T14:14:31;98671.19;;;5.73;72.46
22020;BME280;51298;53.362;-1.518;2024-03-08T14:17:16;98659.63;;;5.68;73.00
22020;BME280;51298;53.362;-1.518;2024-03-08T14:19:50;98640.38;;;5.70;72.80
22020;BME280;51298;53.362;-1.518;2024-03-08T14:22:38;98659.06;;;5.92;72.09
22020;BME280;51298;53.362;-1.518;2024-03-08T14:25:11;98650.06;;;5.96;70.96
22020;BME280;51298;53.362;-1.518;2024-03-08T14:27:56;98638.34;;;6.01;69.66
22020;BME280;51298;53.362;-1.518;2024-03-08T14:30:36;98641.72;;;6.02;70.81
22020;BME280;51298;53.362;-1.518;2024-03-08T14:33:22;98635.09;;;6.35;70.94
22020;BME280;51298;53.362;-1.518;2024-03-08T14:35:58;98629.72;;;6.72;70.58